Terminal Aerodrome Forecast
Issued by NWS Wilmington, OH

Current Version | Previous Version | Text Only | Print | Product List | Glossary Off
Versions: 1 2 3 4 5 6 7 8 9 10 11 12 13 14 15 16 17 18 19 20 21 22 23 24 25 26 27 28 29

000
FTUS41 KILN 210800 AAA
TAFCVG
TAF AMD
KCVG 210859Z 2109/2212 31008KT P6SM SCT060
     FM211200 32008KT P6SM BKN060
     FM211500 32011KT P6SM OVC035
     FM211700 33011G19KT P6SM OVC025
     FM212200 34008KT P6SM OVC025=

USA.gov is the U.S. government's official web portal to all federal, state and local government web resources and services.